Terminal Aerodrome Forecast
Issued by NWS Springfield, MO

Home | Current Version | Previous Version | Text Only | Print | Product List | Glossary On
Versions: 1 2 3 4 5 6 7 8 9 10 11 12 13 14 15 16 17 18 19 20 21
337
FTUS43 KSGF 220520
TAFSGF
TAF
KSGF 220520Z 2206/2306 15007KT P6SM SCT250
     FM221200 13004KT P6SM BKN010
     FM221800 16007KT P6SM BKN025
     FM222100 15006KT P6SM BKN250=

USA.gov is the U.S. government's official web portal to all federal, state and local government web resources and services.